createdAt,value
2019-06-08T00:00:01.684Z,15.40
2019-06-08T00:04:06.272Z,15.40
2019-06-08T00:08:10.835Z,15.40
2019-06-08T00:12:15.400Z,15.30
2019-06-08T00:16:19.948Z,15.30
2019-06-08T00:20:24.466Z,15.30
2019-06-08T00:24:28.979Z,15.20
2019-06-08T00:28:33.495Z,15.30
2019-06-08T00:32:38.031Z,15.30
2019-06-08T00:36:42.531Z,15.30
2019-06-08T00:40:47.069Z,15.40
2019-06-08T00:44:51.560Z,15.40
2019-06-08T00:48:56.103Z,15.50
2019-06-08T00:53:00.629Z,15.50
2019-06-08T00:57:05.299Z,15.40
2019-06-08T01:01:09.888Z,15.40
2019-06-08T01:05:14.952Z,15.40
2019-06-08T01:09:20.198Z,15.50
2019-06-08T01:13:24.969Z,15.50
2019-06-08T01:17:29.520Z,15.40
2019-06-08T01:21:34.048Z,15.50
2019-06-08T01:25:38.550Z,15.50
2019-06-08T01:29:43.080Z,15.50
2019-06-08T01:33:47.702Z,15.50
2019-06-08T01:37:52.370Z,15.40
2019-06-08T01:41:56.878Z,15.40
2019-06-08T01:46:01.403Z,15.30
2019-06-08T01:50:06.961Z,15.30
2019-06-08T01:54:11.556Z,15.20
2019-06-08T01:58:16.132Z,15.30
2019-06-08T02:02:20.736Z,15.20
2019-06-08T02:06:26.186Z,15.20
2019-06-08T02:10:30.913Z,15.20
2019-06-08T02:14:35.581Z,15.10
2019-06-08T02:18:50.309Z,15.20
2019-06-08T02:22:46.460Z,15.10
2019-06-08T02:26:50.954Z,15.10
2019-06-08T02:30:55.484Z,15.00
2019-06-08T02:34:59.988Z,14.90
2019-06-08T02:39:06.740Z,15.00
2019-06-08T02:43:11.265Z,14.90
2019-06-08T02:47:16.523Z,14.90
2019-06-08T02:51:21.608Z,14.90
2019-06-08T02:55:28.733Z,14.90
2019-06-08T02:59:38.538Z,14.90
2019-06-08T03:03:45.240Z,14.80
2019-06-08T03:07:51.485Z,14.80
2019-06-08T03:11:56.052Z,14.80
2019-06-08T03:16:00.563Z,14.80
2019-06-08T03:20:06.401Z,14.80
2019-06-08T03:24:10.928Z,14.80
2019-06-08T03:28:15.600Z,14.60
2019-06-08T03:32:20.100Z,14.70
2019-06-08T03:36:24.625Z,14.70
2019-06-08T03:40:29.262Z,14.60
2019-06-08T03:44:34.256Z,14.60
2019-06-08T03:48:40.076Z,14.50
2019-06-08T03:52:46.248Z,14.50
2019-06-08T03:56:51.051Z,14.40
2019-06-08T04:00:55.559Z,14.40
2019-06-08T04:05:00.198Z,14.40
2019-06-08T04:09:06.847Z,14.40
2019-06-08T04:13:11.883Z,14.40
2019-06-08T04:17:16.656Z,14.40
2019-06-08T04:21:21.255Z,14.40
2019-06-08T04:25:25.899Z,14.30
2019-06-08T04:29:30.429Z,14.40
2019-06-08T04:33:34.948Z,14.40
2019-06-08T04:37:40.474Z,14.40
2019-06-08T04:41:47.190Z,14.30
2019-06-08T04:45:51.777Z,14.30
2019-06-08T04:49:56.294Z,14.30
2019-06-08T04:54:00.819Z,14.30
2019-06-08T04:58:05.408Z,14.30
2019-06-08T05:02:09.919Z,14.20
2019-06-08T05:06:14.447Z,14.20
2019-06-08T05:10:19.189Z,14.20
2019-06-08T05:14:23.723Z,14.30
2019-06-08T05:18:28.247Z,14.20
2019-06-08T05:22:32.774Z,14.20
2019-06-08T05:26:37.438Z,14.30
2019-06-08T05:30:43.168Z,14.20
2019-06-08T05:34:47.940Z,14.20
2019-06-08T05:38:52.470Z,14.20
2019-06-08T05:42:57.013Z,14.20
2019-06-08T05:47:01.524Z,14.20
2019-06-08T05:51:06.125Z,14.10
2019-06-08T05:55:10.702Z,14.00
2019-06-08T05:59:15.249Z,14.10
2019-06-08T06:03:19.780Z,14.00
2019-06-08T06:07:24.352Z,14.00
2019-06-08T06:11:29.100Z,13.90
2019-06-08T06:15:33.733Z,13.90
2019-06-08T06:19:38.277Z,13.90
2019-06-08T06:23:43.176Z,13.90
2019-06-08T06:27:47.762Z,13.80
2019-06-08T06:31:52.355Z,13.90
2019-06-08T06:35:56.927Z,13.80
2019-06-08T06:40:01.454Z,13.90
2019-06-08T06:44:06.055Z,13.90
2019-06-08T06:48:10.687Z,13.90
2019-06-08T06:52:15.354Z,13.80
2019-06-08T06:56:19.880Z,13.80
2019-06-08T07:00:32.098Z,14.00
2019-06-08T07:04:36.777Z,14.20
2019-06-08T07:08:42.041Z,14.40
2019-06-08T07:12:46.709Z,14.50
2019-06-08T07:16:51.975Z,14.60
2019-06-08T07:20:56.612Z,14.30
2019-06-08T07:25:04.476Z,14.30
2019-06-08T07:29:10.476Z,14.30
2019-06-08T07:33:15.191Z,14.20
2019-06-08T07:37:21.172Z,14.40
2019-06-08T07:41:25.726Z,14.80
2019-06-08T07:45:30.343Z,15.00
2019-06-08T07:49:34.947Z,14.80
2019-06-08T07:53:39.511Z,14.80
2019-06-08T07:57:44.039Z,14.90
2019-06-08T08:01:49.674Z,15.00
2019-06-08T08:05:55.032Z,15.10
2019-06-08T08:09:59.937Z,15.20
2019-06-08T08:14:04.723Z,15.30
2019-06-08T08:18:09.351Z,15.40
2019-06-08T08:22:24.990Z,15.40
2019-06-08T08:26:20.152Z,15.40
2019-06-08T08:30:24.806Z,15.30
2019-06-08T08:34:29.327Z,15.50
2019-06-08T08:38:33.844Z,15.80
2019-06-08T08:42:38.921Z,16.30
2019-06-08T08:46:43.548Z,16.60
2019-06-08T08:50:48.419Z,16.70
2019-06-08T08:54:54.195Z,16.80
2019-06-08T08:59:01.087Z,16.70
2019-06-08T09:03:22.331Z,16.90
2019-06-08T09:07:12.650Z,17.10
2019-06-08T09:11:17.580Z,16.80
2019-06-08T09:15:22.274Z,17.00
2019-06-08T09:19:28.065Z,16.60
2019-06-08T09:23:32.994Z,16.50
2019-06-08T09:27:38.284Z,16.50
2019-06-08T09:31:43.121Z,16.40
2019-06-08T09:35:48.003Z,16.80
2019-06-08T09:39:53.896Z,17.20
2019-06-08T09:44:02.172Z,16.90
2019-06-08T09:48:06.481Z,16.80
2019-06-08T09:52:11.250Z,16.70
2019-06-08T09:56:18.290Z,16.40
2019-06-08T10:00:26.394Z,16.30
2019-06-08T10:04:31.514Z,16.20
2019-06-08T10:08:35.150Z,16.40
2019-06-08T10:12:41.146Z,16.60
2019-06-08T10:16:47.791Z,16.70
2019-06-08T10:20:52.115Z,16.70
2019-06-08T10:24:58.027Z,16.60
2019-06-08T10:29:05.181Z,16.40
2019-06-08T10:33:10.045Z,16.40
2019-06-08T10:37:14.820Z,16.70
2019-06-08T10:41:21.860Z,16.80
2019-06-08T10:45:28.446Z,16.60
2019-06-08T10:49:31.884Z,16.60
2019-06-08T10:53:46.449Z,16.60
2019-06-08T10:57:42.855Z,16.70
2019-06-08T11:01:47.447Z,16.80
2019-06-08T11:05:52.123Z,16.90
2019-06-08T11:09:58.676Z,17.20
2019-06-08T11:14:04.203Z,17.10
2019-06-08T11:18:11.853Z,17.00
2019-06-08T11:22:17.913Z,17.10
2019-06-08T11:26:24.537Z,17.20
2019-06-08T11:30:30.504Z,17.20
2019-06-08T11:34:37.199Z,17.30
2019-06-08T11:38:41.059Z,16.90
2019-06-08T11:42:48.385Z,16.80
2019-06-08T11:46:52.047Z,16.60
2019-06-08T11:50:58.500Z,16.60
2019-06-08T11:55:05.022Z,16.60
2019-06-08T11:59:14.169Z,16.60
2019-06-08T12:03:16.964Z,16.50
2019-06-08T12:07:21.622Z,16.70
2019-06-08T12:11:28.020Z,16.90
2019-06-08T12:15:32.347Z,17.30
2019-06-08T12:19:37.756Z,17.50
2019-06-08T12:23:42.503Z,17.60
2019-06-08T12:27:48.844Z,17.70
2019-06-08T12:31:53.468Z,17.70
2019-06-08T12:35:58.068Z,17.80
2019-06-08T12:40:02.683Z,17.90
2019-06-08T12:44:09.777Z,17.90
2019-06-08T12:48:16.254Z,18.10
2019-06-08T12:52:22.460Z,18.20
2019-06-08T12:56:28.743Z,18.30
2019-06-08T13:00:33.627Z,18.20
2019-06-08T13:04:38.523Z,18.10
2019-06-08T13:08:43.071Z,18.40
2019-06-08T13:12:48.053Z,18.60
2019-06-08T13:16:53.192Z,19.00
2019-06-08T13:20:59.168Z,18.80
2019-06-08T13:25:22.810Z,18.80
2019-06-08T13:29:13.768Z,19.20
2019-06-08T13:33:18.395Z,19.10
2019-06-08T13:37:23.130Z,18.60
2019-06-08T13:41:29.967Z,18.30
2019-06-08T13:45:34.077Z,18.20
2019-06-08T13:49:38.609Z,18.20
2019-06-08T13:53:43.170Z,18.80
2019-06-08T13:57:49.167Z,19.00
2019-06-08T14:01:53.793Z,18.90
2019-06-08T14:05:58.332Z,18.70
2019-06-08T14:10:03.292Z,18.50
2019-06-08T14:14:08.400Z,18.20
2019-06-08T14:18:13.120Z,18.20
2019-06-08T14:22:21.383Z,18.20
2019-06-08T14:26:24.730Z,18.30
2019-06-08T14:30:33.048Z,19.30
2019-06-08T14:34:38.635Z,20.00
2019-06-08T14:38:42.811Z,20.30
2019-06-08T14:42:48.477Z,21.30
2019-06-08T14:46:53.423Z,22.10
2019-06-08T14:50:58.697Z,22.90
2019-06-08T14:55:04.096Z,22.10
2019-06-08T14:59:08.635Z,21.30
2019-06-08T15:03:13.180Z,21.00
2019-06-08T15:07:20.104Z,20.00
2019-06-08T15:11:23.960Z,19.70
2019-06-08T15:15:30.767Z,19.10
2019-06-08T15:19:34.893Z,18.90
2019-06-08T15:23:39.423Z,19.00
2019-06-08T15:27:44.050Z,19.30
2019-06-08T15:31:48.670Z,19.20
2019-06-08T15:35:53.174Z,19.50
2019-06-08T15:39:58.495Z,19.20
2019-06-08T15:44:03.153Z,18.90
2019-06-08T15:48:08.119Z,18.50
2019-06-08T15:52:12.805Z,17.60
2019-06-08T15:56:18.704Z,17.00
2019-06-08T16:00:23.296Z,16.60
2019-06-08T16:04:27.859Z,16.60
2019-06-08T16:08:32.450Z,16.70
2019-06-08T16:12:36.980Z,16.70
2019-06-08T16:16:41.534Z,16.70
2019-06-08T16:20:46.258Z,16.70
2019-06-08T16:24:50.938Z,16.60
2019-06-08T16:28:55.790Z,16.20
2019-06-08T16:33:00.295Z,15.90
2019-06-08T16:37:04.953Z,15.60
2019-06-08T16:41:09.558Z,15.40
2019-06-08T16:45:14.446Z,15.30
2019-06-08T16:49:19.043Z,15.30
2019-06-08T16:53:23.682Z,15.40
2019-06-08T16:57:28.873Z,15.50
2019-06-08T17:01:34.755Z,15.40
2019-06-08T17:05:39.411Z,15.40
2019-06-08T17:09:43.975Z,15.40
2019-06-08T17:13:48.522Z,15.30
2019-06-08T17:17:53.269Z,15.30
2019-06-08T17:21:57.862Z,15.20
2019-06-08T17:26:02.455Z,15.20
2019-06-08T17:30:09.260Z,15.40
2019-06-08T17:34:13.885Z,15.50
2019-06-08T17:38:18.405Z,15.60
2019-06-08T17:42:22.947Z,15.70
2019-06-08T17:46:27.647Z,15.90
2019-06-08T17:50:32.663Z,15.90
2019-06-08T17:54:37.525Z,15.90
2019-06-08T17:58:43.366Z,15.80
2019-06-08T18:02:48.451Z,15.80
2019-06-08T18:06:53.110Z,15.90
2019-06-08T18:10:57.727Z,16.00
2019-06-08T18:15:02.387Z,16.00
2019-06-08T18:19:08.540Z,16.00
2019-06-08T18:23:13.246Z,16.00
2019-06-08T18:27:18.268Z,16.00
2019-06-08T18:31:22.987Z,16.10
2019-06-08T18:35:27.851Z,16.20
2019-06-08T18:39:33.089Z,16.20
2019-06-08T18:43:40.004Z,16.10
2019-06-08T18:47:43.968Z,16.10
2019-06-08T18:51:51.650Z,16.10
2019-06-08T18:55:58.176Z,16.10
2019-06-08T19:00:08.494Z,16.00
2019-06-08T19:04:09.168Z,16.00
2019-06-08T19:08:17.881Z,16.00
2019-06-08T19:12:22.294Z,16.10
2019-06-08T19:16:28.381Z,16.00
2019-06-08T19:20:33.479Z,16.00
2019-06-08T19:24:40.763Z,16.00
2019-06-08T19:28:47.811Z,16.00
2019-06-08T19:32:52.474Z,15.80
2019-06-08T19:36:57.389Z,15.70
2019-06-08T19:41:01.924Z,15.50
2019-06-08T19:45:08.800Z,15.30
2019-06-08T19:49:13.422Z,15.10
2019-06-08T19:53:18.347Z,15.00
2019-06-08T19:57:22.983Z,14.80
2019-06-08T20:01:27.806Z,14.60
2019-06-08T20:05:32.891Z,14.50
2019-06-08T20:09:37.692Z,14.30
2019-06-08T20:13:43.291Z,14.10
2019-06-08T20:17:49.152Z,14.10
2019-06-08T20:21:54.321Z,13.90
2019-06-08T20:26:00.849Z,13.80
2019-06-08T20:30:09.516Z,13.70
2019-06-08T20:34:13.277Z,13.70
2019-06-08T20:38:31.490Z,13.50
2019-06-08T20:42:24.091Z,13.40
2019-06-08T20:46:28.910Z,13.30
2019-06-08T20:50:33.659Z,13.20
2019-06-08T20:54:38.195Z,13.20
2019-06-08T20:58:43.194Z,13.20
2019-06-08T21:02:50.068Z,13.10
2019-06-08T21:06:54.450Z,13.10
2019-06-08T21:10:59.163Z,13.00
2019-06-08T21:15:07.046Z,12.90
2019-06-08T21:19:11.865Z,12.90
2019-06-08T21:23:17.061Z,12.90
2019-06-08T21:27:21.692Z,12.90
2019-06-08T21:31:28.391Z,12.80
2019-06-08T21:35:32.457Z,12.70
2019-06-08T21:39:39.117Z,12.60
2019-06-08T21:43:43.219Z,12.60
2019-06-08T21:47:49.993Z,12.50
2019-06-08T21:51:54.560Z,12.50
2019-06-08T21:55:59.362Z,12.40
2019-06-08T22:00:27.145Z,12.40
2019-06-08T22:04:15.879Z,12.40
2019-06-08T22:08:20.616Z,12.40
2019-06-08T22:12:25.240Z,12.40
2019-06-08T22:16:29.864Z,12.40
2019-06-08T22:20:34.583Z,12.40
2019-06-08T22:24:39.159Z,12.40
2019-06-08T22:28:43.727Z,12.40
2019-06-08T22:32:48.385Z,12.40
2019-06-08T22:36:54.155Z,12.20
2019-06-08T22:41:00.042Z,12.20
2019-06-08T22:45:08.410Z,12.10
2019-06-08T22:49:15.208Z,12.10
2019-06-08T22:53:19.086Z,12.00
2019-06-08T22:57:23.730Z,12.00
2019-06-08T23:01:28.383Z,11.90
2019-06-08T23:05:32.993Z,11.90
2019-06-08T23:09:37.506Z,11.90
2019-06-08T23:13:42.144Z,11.80
2019-06-08T23:17:47.959Z,11.70
2019-06-08T23:21:52.732Z,11.60
2019-06-08T23:26:00.546Z,11.60
2019-06-08T23:30:06.068Z,11.50
2019-06-08T23:34:11.602Z,11.50
2019-06-08T23:38:17.717Z,11.50
2019-06-08T23:42:32.843Z,11.50
2019-06-08T23:46:34.966Z,11.50
2019-06-08T23:50:42.303Z,11.50
2019-06-08T23:55:01.019Z,11.50
2019-06-08T23:59:10.152Z,11.50
